sensor_id;sensor_type;location;lat;lon;timestamp;P1;durP1;ratioP1;P2;durP2;ratioP2
80215;SDS011;69532;37.974;23.708;2024-03-02T00:00:21;33.30;;;17.23;;
80215;SDS011;69532;37.974;23.708;2024-03-02T00:02:50;33.35;;;15.38;;
80215;SDS011;69532;37.974;23.708;2024-03-02T00:05:19;32.25;;;15.30;;
80215;SDS011;69532;37.974;23.708;2024-03-02T00:08:22;39.83;;;16.90;;
80215;SDS011;69532;37.974;23.708;2024-03-02T00:10:42;30.20;;;15.20;;
80215;SDS011;69532;37.974;23.708;2024-03-02T00:13:09;35.92;;;16.35;;
80215;SDS011;69532;37.974;23.708;2024-03-02T00:18:04;33.47;;;16.75;;
80215;SDS011;69532;37.974;23.708;2024-03-02T00:20:31;33.22;;;16.83;;
80215;SDS011;69532;37.974;23.708;2024-03-02T00:23:00;36.25;;;17.20;;
80215;SDS011;69532;37.974;23.708;2024-03-02T00:25:44;31.92;;;16.75;;
80215;SDS011;69532;37.974;23.708;2024-03-02T00:31:03;34.65;;;15.68;;
80215;SDS011;69532;37.974;23.708;2024-03-02T00:33:43;32.70;;;16.73;;
80215;SDS011;69532;37.974;23.708;2024-03-02T00:36:12;36.97;;;17.13;;
80215;SDS011;69532;37.974;23.708;2024-03-02T00:38:48;36.13;;;17.30;;
80215;SDS011;69532;37.974;23.708;2024-03-02T00:41:20;36.05;;;17.60;;
80215;SDS011;69532;37.974;23.708;2024-03-02T00:44:01;35.67;;;17.23;;
80215;SDS011;69532;37.974;23.708;2024-03-02T00:46:35;37.47;;;16.92;;
80215;SDS011;69532;37.974;23.708;2024-03-02T00:51:48;36.38;;;17.67;;
80215;SDS011;69532;37.974;23.708;2024-03-02T00:54:19;38.90;;;18.15;;
80215;SDS011;69532;37.974;23.708;2024-03-02T00:56:55;35.72;;;18.25;;
80215;SDS011;69532;37.974;23.708;2024-03-02T00:59:22;39.28;;;18.17;;
80215;SDS011;69532;37.974;23.708;2024-03-02T01:01:49;39.17;;;18.38;;
80215;SDS011;69532;37.974;23.708;2024-03-02T01:04:15;38.65;;;18.67;;
80215;SDS011;69532;37.974;23.708;2024-03-02T01:06:44;39.17;;;17.90;;
80215;SDS011;69532;37.974;23.708;2024-03-02T01:09:11;42.67;;;18.48;;
80215;SDS011;69532;37.974;23.708;2024-03-02T01:11:40;44.05;;;20.65;;
80215;SDS011;69532;37.974;23.708;2024-03-02T01:14:06;42.65;;;18.88;;
80215;SDS011;69532;37.974;23.708;2024-03-02T01:16:33;43.65;;;19.60;;
80215;SDS011;69532;37.974;23.708;2024-03-02T01:18:59;44.17;;;19.45;;
80215;SDS011;69532;37.974;23.708;2024-03-02T01:21:25;45.60;;;20.45;;
80215;SDS011;69532;37.974;23.708;2024-03-02T01:23:51;47.95;;;21.17;;
80215;SDS011;69532;37.974;23.708;2024-03-02T01:26:17;44.42;;;20.40;;
80215;SDS011;69532;37.974;23.708;2024-03-02T01:28:43;43.97;;;20.02;;
80215;SDS011;69532;37.974;23.708;2024-03-02T01:31:09;44.75;;;19.73;;
80215;SDS011;69532;37.974;23.708;2024-03-02T01:33:35;48.00;;;20.83;;
80215;SDS011;69532;37.974;23.708;2024-03-02T01:36:01;52.58;;;22.13;;
80215;SDS011;69532;37.974;23.708;2024-03-02T01:38:28;48.33;;;20.48;;
80215;SDS011;69532;37.974;23.708;2024-03-02T01:40:54;54.47;;;22.85;;
80215;SDS011;69532;37.974;23.708;2024-03-02T01:43:22;53.55;;;22.10;;
80215;SDS011;69532;37.974;23.708;2024-03-02T01:45:48;57.97;;;21.50;;
80215;SDS011;69532;37.974;23.708;2024-03-02T01:48:14;52.95;;;20.73;;
80215;SDS011;69532;37.974;23.708;2024-03-02T01:50:40;59.85;;;21.88;;
80215;SDS011;69532;37.974;23.708;2024-03-02T01:53:06;54.70;;;22.13;;
80215;SDS011;69532;37.974;23.708;2024-03-02T01:55:34;56.15;;;22.20;;
80215;SDS011;69532;37.974;23.708;2024-03-02T01:58:00;50.33;;;20.45;;
80215;SDS011;69532;37.974;23.708;2024-03-02T02:00:27;51.90;;;20.77;;
80215;SDS011;69532;37.974;23.708;2024-03-02T02:02:53;56.45;;;22.42;;
80215;SDS011;69532;37.974;23.708;2024-03-02T02:05:20;49.80;;;20.50;;
80215;SDS011;69532;37.974;23.708;2024-03-02T02:07:47;49.63;;;19.40;;
80215;SDS011;69532;37.974;23.708;2024-03-02T02:10:13;50.28;;;19.38;;
80215;SDS011;69532;37.974;23.708;2024-03-02T02:12:39;47.22;;;19.15;;
80215;SDS011;69532;37.974;23.708;2024-03-02T02:15:21;48.35;;;19.52;;
80215;SDS011;69532;37.974;23.708;2024-03-02T02:17:51;45.35;;;18.70;;
80215;SDS011;69532;37.974;23.708;2024-03-02T02:20:17;42.72;;;18.52;;
80215;SDS011;69532;37.974;23.708;2024-03-02T02:22:57;44.85;;;18.20;;
80215;SDS011;69532;37.974;23.708;2024-03-02T02:25:27;41.10;;;17.88;;
80215;SDS011;69532;37.974;23.708;2024-03-02T02:27:55;42.33;;;18.92;;
80215;SDS011;69532;37.974;23.708;2024-03-02T02:30:25;43.63;;;17.70;;
80215;SDS011;69532;37.974;23.708;2024-03-02T02:32:53;37.83;;;17.23;;
80215;SDS011;69532;37.974;23.708;2024-03-02T02:35:19;37.10;;;16.95;;
80215;SDS011;69532;37.974;23.708;2024-03-02T02:37:45;39.40;;;18.23;;
80215;SDS011;69532;37.974;23.708;2024-03-02T02:40:13;42.05;;;17.08;;
80215;SDS011;69532;37.974;23.708;2024-03-02T02:42:39;34.72;;;16.58;;
80215;SDS011;69532;37.974;23.708;2024-03-02T02:45:06;34.65;;;16.45;;
80215;SDS011;69532;37.974;23.708;2024-03-02T02:47:33;36.55;;;18.05;;
80215;SDS011;69532;37.974;23.708;2024-03-02T02:50:01;36.28;;;16.83;;
80215;SDS011;69532;37.974;23.708;2024-03-02T02:52:32;36.05;;;16.45;;
80215;SDS011;69532;37.974;23.708;2024-03-02T02:55:05;37.25;;;17.00;;
80215;SDS011;69532;37.974;23.708;2024-03-02T02:57:33;38.20;;;17.45;;
80215;SDS011;69532;37.974;23.708;2024-03-02T03:00:05;38.97;;;17.27;;
80215;SDS011;69532;37.974;23.708;2024-03-02T03:02:38;33.15;;;16.83;;
80215;SDS011;69532;37.974;23.708;2024-03-02T03:05:08;37.22;;;16.83;;
80215;SDS011;69532;37.974;23.708;2024-03-02T03:07:35;41.65;;;17.73;;
80215;SDS011;69532;37.974;23.708;2024-03-02T03:10:02;33.40;;;16.55;;
80215;SDS011;69532;37.974;23.708;2024-03-02T03:12:32;35.03;;;16.58;;
80215;SDS011;69532;37.974;23.708;2024-03-02T03:15:00;40.33;;;16.77;;
80215;SDS011;69532;37.974;23.708;2024-03-02T03:17:27;38.53;;;18.75;;
80215;SDS011;69532;37.974;23.708;2024-03-02T03:19:53;34.35;;;16.00;;
80215;SDS011;69532;37.974;23.708;2024-03-02T03:22:20;37.35;;;17.08;;
80215;SDS011;69532;37.974;23.708;2024-03-02T03:24:46;34.80;;;16.98;;
80215;SDS011;69532;37.974;23.708;2024-03-02T03:27:12;32.92;;;15.27;;
80215;SDS011;69532;37.974;23.708;2024-03-02T03:29:38;31.83;;;16.17;;
80215;SDS011;69532;37.974;23.708;2024-03-02T03:32:05;34.35;;;16.23;;
80215;SDS011;69532;37.974;23.708;2024-03-02T03:34:32;30.85;;;15.15;;
80215;SDS011;69532;37.974;23.708;2024-03-02T03:36:59;31.50;;;15.38;;
80215;SDS011;69532;37.974;23.708;2024-03-02T03:39:25;31.70;;;14.82;;
80215;SDS011;69532;37.974;23.708;2024-03-02T03:41:51;31.85;;;16.02;;
80215;SDS011;69532;37.974;23.708;2024-03-02T03:44:17;32.72;;;15.48;;
80215;SDS011;69532;37.974;23.708;2024-03-02T03:46:44;34.72;;;16.70;;
80215;SDS011;69532;37.974;23.708;2024-03-02T03:49:10;33.95;;;16.15;;
80215;SDS011;69532;37.974;23.708;2024-03-02T03:51:36;34.78;;;16.73;;
80215;SDS011;69532;37.974;23.708;2024-03-02T03:54:02;36.13;;;17.65;;
80215;SDS011;69532;37.974;23.708;2024-03-02T03:56:28;33.50;;;17.70;;
80215;SDS011;69532;37.974;23.708;2024-03-02T03:58:54;35.10;;;16.75;;
80215;SDS011;69532;37.974;23.708;2024-03-02T04:01:20;33.72;;;17.80;;
80215;SDS011;69532;37.974;23.708;2024-03-02T04:03:48;35.15;;;18.40;;
80215;SDS011;69532;37.974;23.708;2024-03-02T04:06:14;37.53;;;17.55;;
80215;SDS011;69532;37.974;23.708;2024-03-02T04:08:42;34.72;;;17.38;;
80215;SDS011;69532;37.974;23.708;2024-03-02T04:11:08;36.33;;;16.52;;
80215;SDS011;69532;37.974;23.708;2024-03-02T04:13:34;38.05;;;16.40;;
80215;SDS011;69532;37.974;23.708;2024-03-02T04:16:00;36.00;;;16.63;;
80215;SDS011;69532;37.974;23.708;2024-03-02T04:18:27;34.20;;;16.38;;
80215;SDS011;69532;37.974;23.708;2024-03-02T04:20:53;38.40;;;16.67;;
80215;SDS011;69532;37.974;23.708;2024-03-02T04:23:19;40.53;;;17.98;;
80215;SDS011;69532;37.974;23.708;2024-03-02T04:25:45;38.95;;;16.48;;
80215;SDS011;69532;37.974;23.708;2024-03-02T04:28:11;35.60;;;17.73;;
80215;SDS011;69532;37.974;23.708;2024-03-02T04:30:38;36.88;;;18.08;;
80215;SDS011;69532;37.974;23.708;2024-03-02T04:33:04;32.60;;;15.50;;
80215;SDS011;69532;37.974;23.708;2024-03-02T04:35:32;39.38;;;16.48;;
80215;SDS011;69532;37.974;23.708;2024-03-02T04:37:59;37.45;;;17.30;;
80215;SDS011;69532;37.974;23.708;2024-03-02T04:40:25;36.50;;;16.40;;
80215;SDS011;69532;37.974;23.708;2024-03-02T04:42:51;37.45;;;16.98;;
80215;SDS011;69532;37.974;23.708;2024-03-02T04:45:17;37.92;;;16.55;;
80215;SDS011;69532;37.974;23.708;2024-03-02T04:47:44;41.28;;;17.80;;
80215;SDS011;69532;37.974;23.708;2024-03-02T04:50:10;36.20;;;16.65;;
80215;SDS011;69532;37.974;23.708;2024-03-02T04:52:36;41.72;;;18.55;;
80215;SDS011;69532;37.974;23.708;2024-03-02T04:55:02;39.65;;;16.67;;
80215;SDS011;69532;37.974;23.708;2024-03-02T04:57:35;36.08;;;16.23;;
80215;SDS011;69532;37.974;23.708;2024-03-02T05:00:01;40.20;;;16.65;;
80215;SDS011;69532;37.974;23.708;2024-03-02T05:02:32;41.70;;;16.38;;
80215;SDS011;69532;37.974;23.708;2024-03-02T05:04:58;40.97;;;16.55;;
80215;SDS011;69532;37.974;23.708;2024-03-02T05:07:24;36.33;;;16.77;;
80215;SDS011;69532;37.974;23.708;2024-03-02T05:09:50;40.35;;;16.80;;
80215;SDS011;69532;37.974;23.708;2024-03-02T05:12:16;34.55;;;16.20;;
80215;SDS011;69532;37.974;23.708;2024-03-02T05:15:14;35.50;;;15.05;;
80215;SDS011;69532;37.974;23.708;2024-03-02T05:17:41;35.22;;;17.23;;
80215;SDS011;69532;37.974;23.708;2024-03-02T05:20:11;35.92;;;15.77;;
80215;SDS011;69532;37.974;23.708;2024-03-02T05:22:37;37.28;;;17.80;;
80215;SDS011;69532;37.974;23.708;2024-03-02T05:25:04;37.28;;;17.83;;
80215;SDS011;69532;37.974;23.708;2024-03-02T05:27:30;36.08;;;16.20;;
80215;SDS011;69532;37.974;23.708;2024-03-02T05:29:58;40.17;;;16.35;;
80215;SDS011;69532;37.974;23.708;2024-03-02T05:32:25;39.00;;;16.60;;
80215;SDS011;69532;37.974;23.708;2024-03-02T05:34:51;34.65;;;14.98;;
80215;SDS011;69532;37.974;23.708;2024-03-02T05:37:17;32.97;;;15.23;;
80215;SDS011;69532;37.974;23.708;2024-03-02T05:39:43;30.77;;;14.60;;
80215;SDS011;69532;37.974;23.708;2024-03-02T05:42:10;29.85;;;14.23;;
80215;SDS011;69532;37.974;23.708;2024-03-02T05:44:36;30.10;;;15.10;;
80215;SDS011;69532;37.974;23.708;2024-03-02T05:47:03;30.98;;;14.50;;
80215;SDS011;69532;37.974;23.708;2024-03-02T05:49:29;30.73;;;13.63;;
80215;SDS011;69532;37.974;23.708;2024-03-02T05:51:55;35.03;;;15.23;;
80215;SDS011;69532;37.974;23.708;2024-03-02T05:54:21;35.72;;;15.50;;
80215;SDS011;69532;37.974;23.708;2024-03-02T05:56:48;31.77;;;14.38;;
80215;SDS011;69532;37.974;23.708;2024-03-02T05:59:14;34.75;;;15.70;;
80215;SDS011;69532;37.974;23.708;2024-03-02T06:01:42;31.20;;;15.02;;
80215;SDS011;69532;37.974;23.708;2024-03-02T06:04:09;32.45;;;15.00;;
80215;SDS011;69532;37.974;23.708;2024-03-02T06:06:36;29.55;;;13.07;;
80215;SDS011;69532;37.974;23.708;2024-03-02T06:09:04;33.95;;;15.73;;
80215;SDS011;69532;37.974;23.708;2024-03-02T06:11:36;29.38;;;13.52;;
80215;SDS011;69532;37.974;23.708;2024-03-02T06:14:03;32.28;;;14.05;;
80215;SDS011;69532;37.974;23.708;2024-03-02T06:16:30;30.52;;;13.80;;
80215;SDS011;69532;37.974;23.708;2024-03-02T06:18:56;28.60;;;13.85;;
80215;SDS011;69532;37.974;23.708;2024-03-02T06:21:25;30.25;;;13.90;;
80215;SDS011;69532;37.974;23.708;2024-03-02T06:23:55;32.38;;;14.13;;
80215;SDS011;69532;37.974;23.708;2024-03-02T06:26:22;27.33;;;14.02;;
80215;SDS011;69532;37.974;23.708;2024-03-02T06:28:48;25.80;;;13.20;;
80215;SDS011;69532;37.974;23.708;2024-03-02T06:31:14;24.55;;;12.60;;
80215;SDS011;69532;37.974;23.708;2024-03-02T06:33:40;26.17;;;13.10;;
80215;SDS011;69532;37.974;23.708;2024-03-02T06:36:07;24.92;;;12.65;;
80215;SDS011;69532;37.974;23.708;2024-03-02T06:38:37;26.00;;;12.30;;
80215;SDS011;69532;37.974;23.708;2024-03-02T06:41:05;22.48;;;12.75;;
80215;SDS011;69532;37.974;23.708;2024-03-02T06:43:31;20.60;;;11.15;;
80215;SDS011;69532;37.974;23.708;2024-03-02T06:45:57;24.13;;;13.13;;
80215;SDS011;69532;37.974;23.708;2024-03-02T06:48:23;23.48;;;12.52;;
80215;SDS011;69532;37.974;23.708;2024-03-02T06:50:50;25.02;;;15.15;;
80215;SDS011;69532;37.974;23.708;2024-03-02T06:53:17;23.27;;;11.18;;
80215;SDS011;69532;37.974;23.708;2024-03-02T06:55:45;23.80;;;12.20;;
80215;SDS011;69532;37.974;23.708;2024-03-02T06:58:14;20.48;;;11.55;;
80215;SDS011;69532;37.974;23.708;2024-03-02T07:00:41;23.75;;;11.45;;
80215;SDS011;69532;37.974;23.708;2024-03-02T07:03:09;24.80;;;12.15;;
80215;SDS011;69532;37.974;23.708;2024-03-02T07:05:35;25.23;;;11.93;;
80215;SDS011;69532;37.974;23.708;2024-03-02T07:08:02;21.83;;;12.18;;
80215;SDS011;69532;37.974;23.708;2024-03-02T07:10:29;20.85;;;11.50;;
80215;SDS011;69532;37.974;23.708;2024-03-02T07:12:55;22.98;;;11.55;;
80215;SDS011;69532;37.974;23.708;2024-03-02T07:15:21;23.95;;;12.85;;
80215;SDS011;69532;37.974;23.708;2024-03-02T07:18:03;23.20;;;12.20;;
80215;SDS011;69532;37.974;23.708;2024-03-02T07:20:30;25.80;;;11.85;;
80215;SDS011;69532;37.974;23.708;2024-03-02T07:22:56;22.23;;;11.85;;
80215;SDS011;69532;37.974;23.708;2024-03-02T07:25:22;26.48;;;13.73;;
80215;SDS011;69532;37.974;23.708;2024-03-02T07:27:48;27.25;;;13.20;;
80215;SDS011;69532;37.974;23.708;2024-03-02T07:30:14;25.80;;;12.43;;
80215;SDS011;69532;37.974;23.708;2024-03-02T07:32:44;23.80;;;11.20;;
80215;SDS011;69532;37.974;23.708;2024-03-02T07:35:11;34.83;;;14.00;;
80215;SDS011;69532;37.974;23.708;2024-03-02T07:37:41;29.50;;;13.90;;
80215;SDS011;69532;37.974;23.708;2024-03-02T07:40:08;25.42;;;14.68;;
80215;SDS011;69532;37.974;23.708;2024-03-02T07:42:37;24.58;;;13.00;;
80215;SDS011;69532;37.974;23.708;2024-03-02T07:45:05;25.83;;;13.02;;
80215;SDS011;69532;37.974;23.708;2024-03-02T07:47:35;29.30;;;13.70;;
80215;SDS011;69532;37.974;23.708;2024-03-02T07:50:01;22.48;;;12.45;;
80215;SDS011;69532;37.974;23.708;2024-03-02T07:52:28;24.70;;;13.25;;
80215;SDS011;69532;37.974;23.708;2024-03-02T07:54:54;25.95;;;13.00;;
80215;SDS011;69532;37.974;23.708;2024-03-02T07:57:21;24.13;;;12.32;;
80215;SDS011;69532;37.974;23.708;2024-03-02T07:59:47;24.48;;;14.55;;
80215;SDS011;69532;37.974;23.708;2024-03-02T08:02:13;22.25;;;12.32;;
80215;SDS011;69532;37.974;23.708;2024-03-02T08:04:39;21.33;;;10.82;;
80215;SDS011;69532;37.974;23.708;2024-03-02T08:07:06;20.48;;;11.10;;
80215;SDS011;69532;37.974;23.708;2024-03-02T08:09:32;19.83;;;11.02;;
80215;SDS011;69532;37.974;23.708;2024-03-02T08:11:58;21.75;;;11.43;;
80215;SDS011;69532;37.974;23.708;2024-03-02T08:14:24;20.98;;;12.23;;
80215;SDS011;69532;37.974;23.708;2024-03-02T08:16:51;21.35;;;11.93;;
80215;SDS011;69532;37.974;23.708;2024-03-02T08:19:17;19.45;;;10.38;;
80215;SDS011;69532;37.974;23.708;2024-03-02T08:21:44;17.63;;;9.52;;
80215;SDS011;69532;37.974;23.708;2024-03-02T08:24:10;19.25;;;10.07;;
80215;SDS011;69532;37.974;23.708;2024-03-02T08:26:36;19.70;;;10.52;;
80215;SDS011;69532;37.974;23.708;2024-03-02T08:29:02;19.35;;;10.13;;
80215;SDS011;69532;37.974;23.708;2024-03-02T08:31:29;21.17;;;11.38;;
80215;SDS011;69532;37.974;23.708;2024-03-02T08:33:55;19.38;;;10.23;;
80215;SDS011;69532;37.974;23.708;2024-03-02T08:36:25;20.95;;;11.10;;
80215;SDS011;69532;37.974;23.708;2024-03-02T08:38:51;20.33;;;11.48;;
80215;SDS011;69532;37.974;23.708;2024-03-02T08:41:17;19.05;;;10.73;;
80215;SDS011;69532;37.974;23.708;2024-03-02T08:43:44;20.33;;;11.02;;
80215;SDS011;69532;37.974;23.708;2024-03-02T08:46:10;21.50;;;13.60;;
80215;SDS011;69532;37.974;23.708;2024-03-02T08:48:36;18.42;;;10.68;;
80215;SDS011;69532;37.974;23.708;2024-03-02T08:51:02;21.08;;;12.43;;
80215;SDS011;69532;37.974;23.708;2024-03-02T08:53:31;20.17;;;10.45;;
80215;SDS011;69532;37.974;23.708;2024-03-02T08:55:57;19.98;;;12.10;;
80215;SDS011;69532;37.974;23.708;2024-03-02T08:58:23;21.30;;;11.15;;
80215;SDS011;69532;37.974;23.708;2024-03-02T09:00:49;21.02;;;10.70;;
80215;SDS011;69532;37.974;23.708;2024-03-02T09:03:16;20.35;;;12.05;;
80215;SDS011;69532;37.974;23.708;2024-03-02T09:05:42;20.98;;;11.82;;
80215;SDS011;69532;37.974;23.708;2024-03-02T09:08:08;23.52;;;11.07;;
80215;SDS011;69532;37.974;23.708;2024-03-02T09:10:34;23.20;;;11.32;;
80215;SDS011;69532;37.974;23.708;2024-03-02T09:13:00;21.17;;;11.13;;
80215;SDS011;69532;37.974;23.708;2024-03-02T09:15:26;24.27;;;12.10;;
80215;SDS011;69532;37.974;23.708;2024-03-02T09:17:53;25.50;;;13.30;;
80215;SDS011;69532;37.974;23.708;2024-03-02T09:20:19;25.17;;;12.10;;
80215;SDS011;69532;37.974;23.708;2024-03-02T09:22:45;25.38;;;12.48;;
80215;SDS011;69532;37.974;23.708;2024-03-02T09:25:13;23.38;;;12.88;;
80215;SDS011;69532;37.974;23.708;2024-03-02T09:27:39;25.02;;;12.75;;
80215;SDS011;69532;37.974;23.708;2024-03-02T09:30:07;27.50;;;12.25;;
80215;SDS011;69532;37.974;23.708;2024-03-02T09:32:34;23.75;;;11.63;;
80215;SDS011;69532;37.974;23.708;2024-03-02T09:35:00;23.65;;;12.32;;
80215;SDS011;69532;37.974;23.708;2024-03-02T09:37:26;22.63;;;11.70;;
80215;SDS011;69532;37.974;23.708;2024-03-02T09:39:54;23.58;;;13.20;;
80215;SDS011;69532;37.974;23.708;2024-03-02T09:42:20;27.13;;;14.43;;
80215;SDS011;69532;37.974;23.708;2024-03-02T09:44:47;30.30;;;14.20;;
80215;SDS011;69532;37.974;23.708;2024-03-02T09:47:13;29.83;;;14.52;;
80215;SDS011;69532;37.974;23.708;2024-03-02T09:49:40;27.73;;;15.40;;
80215;SDS011;69532;37.974;23.708;2024-03-02T09:52:06;33.75;;;13.98;;
80215;SDS011;69532;37.974;23.708;2024-03-02T09:54:33;27.55;;;14.27;;
80215;SDS011;69532;37.974;23.708;2024-03-02T09:56:59;29.83;;;14.30;;
80215;SDS011;69532;37.974;23.708;2024-03-02T09:59:27;28.27;;;13.43;;
80215;SDS011;69532;37.974;23.708;2024-03-02T10:02:03;23.05;;;12.98;;
80215;SDS011;69532;37.974;23.708;2024-03-02T10:04:32;29.05;;;14.05;;
80215;SDS011;69532;37.974;23.708;2024-03-02T10:07:17;23.05;;;12.57;;
80215;SDS011;69532;37.974;23.708;2024-03-02T10:09:44;39.33;;;15.95;;
80215;SDS011;69532;37.974;23.708;2024-03-02T10:12:13;26.83;;;12.65;;
80215;SDS011;69532;37.974;23.708;2024-03-02T10:14:41;26.63;;;14.30;;
80215;SDS011;69532;37.974;23.708;2024-03-02T10:17:11;27.55;;;14.73;;
80215;SDS011;69532;37.974;23.708;2024-03-02T10:19:38;24.55;;;13.13;;
80215;SDS011;69532;37.974;23.708;2024-03-02T10:22:06;24.85;;;13.40;;
80215;SDS011;69532;37.974;23.708;2024-03-02T10:27:07;22.58;;;12.98;;
80215;SDS011;69532;37.974;23.708;2024-03-02T10:29:40;25.05;;;13.82;;
80215;SDS011;69532;37.974;23.708;2024-03-02T10:32:10;27.02;;;13.63;;
80215;SDS011;69532;37.974;23.708;2024-03-02T10:34:37;24.00;;;13.45;;
80215;SDS011;69532;37.974;23.708;2024-03-02T10:37:07;27.45;;;15.88;;
80215;SDS011;69532;37.974;23.708;2024-03-02T10:39:34;31.27;;;16.38;;
80215;SDS011;69532;37.974;23.708;2024-03-02T10:42:06;30.70;;;17.85;;
80215;SDS011;69532;37.974;23.708;2024-03-02T10:44:33;25.90;;;14.02;;
80215;SDS011;69532;37.974;23.708;2024-03-02T10:47:03;24.25;;;14.82;;
80215;SDS011;69532;37.974;23.708;2024-03-02T10:49:31;22.23;;;13.52;;
80215;SDS011;69532;37.974;23.708;2024-03-02T10:52:00;22.05;;;13.77;;
80215;SDS011;69532;37.974;23.708;2024-03-02T10:54:27;30.02;;;16.10;;
80215;SDS011;69532;37.974;23.708;2024-03-02T10:56:55;25.63;;;14.85;;
80215;SDS011;69532;37.974;23.708;2024-03-02T10:59:28;25.00;;;15.77;;
80215;SDS011;69532;37.974;23.708;2024-03-02T11:02:05;25.08;;;17.83;;
80215;SDS011;69532;37.974;23.708;2024-03-02T11:04:36;22.25;;;13.68;;
80215;SDS011;69532;37.974;23.708;2024-03-02T11:07:07;27.30;;;15.80;;
80215;SDS011;69532;37.974;23.708;2024-03-02T11:09:41;25.27;;;15.25;;
80215;SDS011;69532;37.974;23.708;2024-03-02T11:12:16;23.48;;;13.73;;
80215;SDS011;69532;37.974;23.708;2024-03-02T11:14:53;25.45;;;14.48;;
80215;SDS011;69532;37.974;23.708;2024-03-02T11:17:21;25.02;;;16.33;;
80215;SDS011;69532;37.974;23.708;2024-03-02T11:19:48;24.48;;;14.93;;
80215;SDS011;69532;37.974;23.708;2024-03-02T11:22:15;24.88;;;15.27;;
80215;SDS011;69532;37.974;23.708;2024-03-02T11:24:48;25.50;;;16.02;;
80215;SDS011;69532;37.974;23.708;2024-03-02T11:27:20;23.55;;;14.65;;
80215;SDS011;69532;37.974;23.708;2024-03-02T11:32:58;25.77;;;15.73;;
80215;SDS011;69532;37.974;23.708;2024-03-02T11:35:25;24.98;;;15.23;;
80215;SDS011;69532;37.974;23.708;2024-03-02T11:37:52;24.33;;;15.20;;
80215;SDS011;69532;37.974;23.708;2024-03-02T11:40:30;23.08;;;14.82;;
80215;SDS011;69532;37.974;23.708;2024-03-02T11:42:58;18.85;;;13.27;;
80215;SDS011;69532;37.974;23.708;2024-03-02T11:45:26;23.90;;;14.45;;
80215;SDS011;69532;37.974;23.708;2024-03-02T11:47:54;23.95;;;14.32;;
80215;SDS011;69532;37.974;23.708;2024-03-02T11:50:30;23.92;;;14.50;;
80215;SDS011;69532;37.974;23.708;2024-03-02T11:52:59;21.63;;;12.43;;
80215;SDS011;69532;37.974;23.708;2024-03-02T11:55:26;23.63;;;14.70;;
80215;SDS011;69532;37.974;23.708;2024-03-02T11:57:52;20.08;;;13.60;;
80215;SDS011;69532;37.974;23.708;2024-03-02T12:00:19;20.40;;;13.25;;
80215;SDS011;69532;37.974;23.708;2024-03-02T12:02:46;21.70;;;13.30;;
80215;SDS011;69532;37.974;23.708;2024-03-02T12:05:24;23.30;;;13.98;;
80215;SDS011;69532;37.974;23.708;2024-03-02T12:08:02;21.17;;;13.27;;
80215;SDS011;69532;37.974;23.708;2024-03-02T12:10:30;19.25;;;12.95;;
80215;SDS011;69532;37.974;23.708;2024-03-02T12:13:01;21.08;;;13.57;;
80215;SDS011;69532;37.974;23.708;2024-03-02T12:15:36;17.73;;;11.00;;
80215;SDS011;69532;37.974;23.708;2024-03-02T12:18:03;20.63;;;11.88;;
80215;SDS011;69532;37.974;23.708;2024-03-02T12:20:30;21.75;;;12.00;;
80215;SDS011;69532;37.974;23.708;2024-03-02T12:22:58;22.52;;;14.55;;
80215;SDS011;69532;37.974;23.708;2024-03-02T12:25:25;22.35;;;11.77;;
80215;SDS011;69532;37.974;23.708;2024-03-02T12:27:56;23.90;;;12.65;;
80215;SDS011;69532;37.974;23.708;2024-03-02T12:30:23;23.75;;;13.88;;
80215;SDS011;69532;37.974;23.708;2024-03-02T12:32:52;23.85;;;14.82;;
80215;SDS011;69532;37.974;23.708;2024-03-02T12:35:18;23.23;;;13.95;;
80215;SDS011;69532;37.974;23.708;2024-03-02T12:37:45;20.15;;;13.20;;
80215;SDS011;69532;37.974;23.708;2024-03-02T12:40:17;21.20;;;13.77;;
80215;SDS011;69532;37.974;23.708;2024-03-02T12:42:44;19.83;;;10.65;;
80215;SDS011;69532;37.974;23.708;2024-03-02T12:45:12;19.25;;;12.32;;
80215;SDS011;69532;37.974;23.708;2024-03-02T12:47:39;19.17;;;12.35;;
80215;SDS011;69532;37.974;23.708;2024-03-02T12:50:07;23.25;;;13.60;;
80215;SDS011;69532;37.974;23.708;2024-03-02T12:52:34;21.80;;;13.48;;
80215;SDS011;69532;37.974;23.708;2024-03-02T12:55:00;22.30;;;13.18;;
80215;SDS011;69532;37.974;23.708;2024-03-02T12:57:29;21.75;;;13.82;;
80215;SDS011;69532;37.974;23.708;2024-03-02T13:00:00;24.73;;;15.10;;
80215;SDS011;69532;37.974;23.708;2024-03-02T13:02:34;27.15;;;16.80;;
80215;SDS011;69532;37.974;23.708;2024-03-02T13:05:02;27.05;;;16.00;;
80215;SDS011;69532;37.974;23.708;2024-03-02T13:07:29;21.20;;;11.98;;
80215;SDS011;69532;37.974;23.708;2024-03-02T13:09:55;22.08;;;13.00;;
80215;SDS011;69532;37.974;23.708;2024-03-02T13:12:22;19.65;;;11.50;;
80215;SDS011;69532;37.974;23.708;2024-03-02T13:14:52;22.45;;;13.60;;
80215;SDS011;69532;37.974;23.708;2024-03-02T13:17:19;23.10;;;13.50;;
80215;SDS011;69532;37.974;23.708;2024-03-02T13:19:55;24.48;;;13.10;;
80215;SDS011;69532;37.974;23.708;2024-03-02T13:22:22;29.23;;;16.10;;
80215;SDS011;69532;37.974;23.708;2024-03-02T13:24:49;26.55;;;15.68;;
80215;SDS011;69532;37.974;23.708;2024-03-02T13:27:16;26.05;;;15.07;;
80215;SDS011;69532;37.974;23.708;2024-03-02T13:29:45;28.35;;;15.98;;
80215;SDS011;69532;37.974;23.708;2024-03-02T13:32:13;28.15;;;16.83;;
80215;SDS011;69532;37.974;23.708;2024-03-02T13:34:40;25.00;;;14.55;;
80215;SDS011;69532;37.974;23.708;2024-03-02T13:37:06;21.95;;;14.15;;
80215;SDS011;69532;37.974;23.708;2024-03-02T13:39:33;23.23;;;14.02;;
80215;SDS011;69532;37.974;23.708;2024-03-02T13:42:06;23.58;;;15.32;;
80215;SDS011;69532;37.974;23.708;2024-03-02T13:44:33;25.80;;;15.05;;
80215;SDS011;69532;37.974;23.708;2024-03-02T13:47:00;25.83;;;14.80;;
80215;SDS011;69532;37.974;23.708;2024-03-02T13:49:26;26.58;;;16.42;;
80215;SDS011;69532;37.974;23.708;2024-03-02T13:52:00;27.53;;;16.53;;
80215;SDS011;69532;37.974;23.708;2024-03-02T13:54:28;25.92;;;15.80;;
80215;SDS011;69532;37.974;23.708;2024-03-02T13:56:56;24.85;;;14.95;;
80215;SDS011;69532;37.974;23.708;2024-03-02T13:59:24;26.58;;;15.60;;
80215;SDS011;69532;37.974;23.708;2024-03-02T14:01:51;22.33;;;14.25;;
80215;SDS011;69532;37.974;23.708;2024-03-02T14:04:17;19.48;;;12.32;;
80215;SDS011;69532;37.974;23.708;2024-03-02T14:06:43;21.50;;;12.75;;
80215;SDS011;69532;37.974;23.708;2024-03-02T14:09:10;20.02;;;12.13;;
80215;SDS011;69532;37.974;23.708;2024-03-02T14:11:36;20.95;;;11.90;;
80215;SDS011;69532;37.974;23.708;2024-03-02T14:14:02;20.48;;;13.35;;
80215;SDS011;69532;37.974;23.708;2024-03-02T14:16:28;24.20;;;13.85;;
80215;SDS011;69532;37.974;23.708;2024-03-02T14:18:54;22.50;;;13.93;;
80215;SDS011;69532;37.974;23.708;2024-03-02T14:21:20;21.35;;;12.60;;
80215;SDS011;69532;37.974;23.708;2024-03-02T14:23:46;22.73;;;13.32;;
80215;SDS011;69532;37.974;23.708;2024-03-02T14:26:13;23.30;;;11.90;;